KASX/ASX METAR and TAF weather

Enter ICAO airport designator
Station Type Date Time Source
KASX METAR 2019/02/17 06:53 UTC NOAA

KASX 170653Z AUTO 06006KT 10SM CLR M11/M13 A3013 RMK AO2 SLP220 T11111133


Station Type Date Time Source
KASX Decoded METAR 2019/02/17 06:53 UTC NOAA

ASHLAND KENNEDY MEMORIAL, WI, United States (KASX) 46-33N 090-55W 251M
Feb 17, 2019 - 01:53 AM EST / 2019.02.17 0653 UTC
Wind: from the ENE (060 degrees) at 7 MPH (6 KT):0
Visibility: 10 mile(s):0
Sky conditions: clear
Temperature: 12.0 F (-11.1 C)
Windchill: 1 F (-17 C):1
Dew Point: 8.1 F (-13.3 C)
Relative Humidity: 83%
Pressure (altimeter): 30.13 in. Hg (1020 hPa)
ob: KASX 170653Z AUTO 06006KT 10SM CLR M11/M13 A3013 RMK AO2 SLP220 T11111133
cycle: 7

Station Type Date Time Source
KASX TAF UTC NOAA

Error!


Example: see airport list